Flight Track Log - Related Links

Times and Time Zones

All times are in EDT time to prevent confusion due to time zone crossing. See the THY2480 flight status page for this flight to view local times or setup timezone preferences in your user account.

Time Position Orientation Groundspeed Altitude Reporting Facility
EDT Latitude Longitude Course Direction KTS MPH feet Rate Location/Type
Sun 03:32:00 AM 40.5057 29.6553 126° Southeast  Level Estimated
Sun 03:33:00 AM 40.4379 29.7735 127° Southeast  Level Estimated
Sun 03:34:00 AM 40.3700 29.8914 127° Southeast  Level Estimated
Sun 03:35:00 AM 40.3019 30.0091 127° Southeast  Level Estimated
Sun 03:36:00 AM 40.2338 30.1266 127° Southeast  Level Estimated
Sun 03:37:00 AM 40.1655 30.2439 127° Southeast  Level Estimated
Sun 03:38:00 AM 40.0971 30.3609 127° Southeast  Level Estimated
Sun 03:39:00 AM 40.0286 30.4777 127° Southeast  Level Estimated
Sun 03:40:00 AM 39.9599 30.5942 128° Southeast  Level Estimated
Sun 03:41:00 AM 39.8912 30.7105 128° Southeast  Level Estimated
Sun 03:42:00 AM 39.8223 30.8266 128° Southeast  Level Estimated
Sun 03:43:00 AM 39.7533 30.9425 128° Southeast  Level Estimated
Sun 03:44:00 AM 39.6842 31.0581 128° Southeast  Level Estimated
Sun 03:45:00 AM 39.6150 31.1735 128° Southeast  Level Estimated
Sun 03:46:00 AM 39.5457 31.2886 128° Southeast  Level Estimated
Sun 03:47:00 AM 39.4763 31.4035 128° Southeast  Level Estimated
Sun 03:48:00 AM 39.4067 31.5182 128° Southeast  Level Estimated
Sun 03:49:00 AM 39.3371 31.6327 128° Southeast  Level Estimated
Sun 03:50:00 AM 39.2673 31.7469 128° Southeast  Level Estimated
Sun 03:51:00 AM 39.1974 31.8609 128° Southeast  Level Estimated
Sun 03:52:00 AM 39.1274 31.9747 128° Southeast  Level Estimated
Sun 03:53:00 AM 39.0573 32.0883 128° Southeast  Level Estimated
Sun 03:54:00 AM 38.9871 32.2016 129° Southeast  Level Estimated
Sun 03:55:00 AM 38.9167 32.3147 129° Southeast  Level Estimated
Sun 03:56:00 AM 38.8463 32.4276 129° Southeast  Level Estimated
Sun 03:57:00 AM 38.7757 32.5402 129° Southeast  Level Estimated
Sun 03:58:00 AM 38.7051 32.6527 129° Southeast  Level Estimated
Sun 03:59:00 AM 38.6343 32.7649 129° Southeast  Level Estimated
Sun 04:00:00 AM 38.5635 32.8769 129° Southeast  Level Estimated
Sun 04:01:00 AM 38.4925 32.9887 129° Southeast  Level Estimated
Sun 04:02:00 AM 38.4214 33.1002 129° Southeast  Level Estimated
Sun 04:03:00 AM 38.3502 33.2115 129° Southeast  Level Estimated
Sun 04:04:00 AM 38.2789 33.3227 129° Southeast  Level Estimated
Sun 04:05:00 AM 38.2076 33.4336 129° Southeast  Level Estimated
Sun 04:06:00 AM 38.1361 33.5442 129° Southeast  Level Estimated
Sun 04:07:00 AM 38.0645 33.6547 129° Southeast  Level Estimated
Sun 04:08:00 AM 37.9928 33.7649 130° Southeast  Level Estimated
Sun 04:09:00 AM 37.9210 33.8750 130° Southeast  Level Estimated
Sun 04:10:00 AM 37.8490 33.9848 130° Southeast  Level Estimated
Sun 04:11:00 AM 37.7770 34.0944 130° Southeast  Level Estimated
Sun 04:12:00 AM 37.7049 34.2038 130° Southeast  Level Estimated
Sun 04:13:00 AM 37.6327 34.3129 130° Southeast  Level Estimated
Sun 04:14:00 AM 37.5604 34.4219 130° Southeast  Level Estimated
Sun 04:15:00 AM 37.4880 34.5306 130° Southeast  Level Estimated
Sun 04:16:00 AM 37.4155 34.6392 130° Southeast  Level Estimated
Sun 04:17:00 AM 37.3429 34.7475 130° Southeast  Level Estimated
Sun 04:18:00 AM 37.2702 34.8556 130° Southeast  Level Estimated
Sun 04:19:00 AM 37.1973 34.9635 130° Southeast  Level Estimated
Sun 04:20:00 AM 37.1244 35.0712 130° Southeast  Level Estimated
Sun 04:21:00 AM 37.0514 35.1787 130° Southeast  Level Estimated
Sun 04:22:00 AM 36.9822 35.2804 130° Southeast  Level Estimated
Sun 04:23:00 AM 36.9822 35.2804 202° Southwest  Level Estimated
Sun 04:24:00 AM 36.9822 35.2804 202° Southwest  Level Estimated
Sun 04:25:00 AM 36.9822 35.2804 202° Southwest  Level Estimated
Sun 04:26:00 AM 36.9822 35.2804 202° Southwest  Level Estimated
Sun 04:27:00 AM 36.9822 35.2804 202° Southwest  Level Estimated
Sun 04:28:00 AM 36.9822 35.2804 202° Southwest  Level Estimated
Sun 04:29:00 AM 36.9822 35.2804 202° Southwest  Level Estimated
Sun 04:30:00 AM 36.9822 35.2804 202° Southwest  Level Estimated
Sun 04:31:00 AM 36.9822 35.2804 202° Southwest  Level Estimated
Sun 04:32:00 AM 36.9822 35.2804 202° Southwest  Level Estimated
Sun 04:33:00 AM 36.9822 35.2804 202° Southwest  Level Estimated
Sun 04:34:00 AM 36.9822 35.2804 202° Southwest  Level Estimated
Sun 04:35:00 AM 36.9822 35.2804 202° Southwest  Level Estimated
Sun 04:36:00 AM 36.9822 35.2804 202° Southwest  Level Estimated
Sun 04:37:00 AM 36.9822 35.2804 202° Southwest  Level Estimated
Sun 04:38:00 AM 36.9822 35.2804 202° Southwest  Level Estimated

Login

Don't have an account? Register now (free) for customized features, flight alerts, and more!